TAF KABI
KABI 280530Z 2806/2906 02006KT P6SM SCT015 OVC060 FM281000 02006KT P6SM SCT250=
METAR KABI
KABI 280652Z 30003KT 10SM FEW025 OVC032 11/09 A3016 RMK AO2 SLP209 T01110094 ?
SPECI KABI 280638Z 30004KT 10SM FEW025 OVC032 11/10 A3017 RMK AO2 T01110100 ?
SPECI KABI 280628Z 32005KT 10SM BKN026 OVC030 11/10 A3017 RMK AO2 T01110100 ?
SPECI KABI 280621Z 33004KT 10SM SCT024 OVC030 11/10 A3017 RMK AO2 T01110100 ?
SPECI KABI 280606Z 33004KT 10SM FEW015 BKN028 OVC075 11/10 A3017 RMK AO2 T01110100 ?
WC KABI
WS KABI
WV KABI